aviador You're here:

KGWW Decoded Metar

GOLDSBORO/WAYNE in NC, USA
Report Time2017-08-20 18:45:00
UTC Time2017-08-20 19:11:06
Flight Rules vfr VFR
WindCalm
Visibility9999 m
Phenomena:N/A
Clouds:Scattered 044 Hf
Expected CloudBase > 4,400 ft AGL from Temp-Dew spread
CeilingNone
Temp33°C (ISA +18)
Dew Point22°C (52% RH)
Heat Index36.9°C
QNH1019 hPa
Density Alt2,362 ft
Elevation135 ft
Report Wrong Elevation
Raw Report
METAR KGWW 201845Z AUTO 00000KT 10SM SCT044 33/22 A3009 RMK AO2 T03300222=

Extra information for KGWW:More info

Metar Taf Metar & Taf Last 4 Metars F.Rules Stats Wind Profile Meteogram Temp Stats Airport Information Weather charts Add Link Nearby VenuesMetar ALERT Operation Metar Decoded Social comments

AIRNAV info for KGWW